Time;durP1;ratioP1;P1;durP2;ratioP2;P2;SDS_P1;SDS_P2;PMS_P1;PMS_P2;Temp;Humidity;BMP_temperature;BMP_pressure;BME280_temperature;BME280_humidity;BME280_pressure;Samples;Min_cycle;Max_cycle;Signal;HPM_P1;HPM_P2
2022/04/18 00:00:39;;;;;;;18.42;7.32;;;4.30;92.20;;;;;;5031041;28;20201;-72
2022/04/18 00:03:06;;;;;;;11.05;6.57;;;4.20;92.40;;;;;;5031231;28;20209;-71
2022/04/18 00:05:33;;;;;;;12.77;6.35;;;4.10;92.40;;;;;;5030903;28;20202;-71
2022/04/18 00:08:00;;;;;;;14.60;6.80;;;4.10;92.60;;;;;;5030287;28;20221;-72
2022/04/18 00:10:26;;;;;;;23.33;8.90;;;4.00;92.50;;;;;;5030740;28;20197;-71
2022/04/18 00:12:53;;;;;;;38.47;12.60;;;4.00;92.60;;;;;;5031118;28;20704;-72
2022/04/18 00:15:20;;;;;;;25.13;9.93;;;4.00;92.90;;;;;;5030710;28;20213;-71
2022/04/18 00:17:48;;;;;;;16.45;7.35;;;4.00;92.90;;;;;;5030923;28;20230;-72
2022/04/18 00:20:14;;;;;;;13.02;6.65;;;3.90;92.90;;;;;;5030289;28;20202;-71
2022/04/18 00:22:41;;;;;;;14.15;5.55;;;3.90;93.00;;;;;;5031108;28;20228;-71
2022/04/18 00:25:08;;;;;;;21.70;7.78;;;3.80;92.90;;;;;;5030727;28;20220;-71
2022/04/18 00:27:35;;;;;;;18.00;7.03;;;3.80;92.90;;;;;;5031745;28;20237;-71
2022/04/18 00:30:02;;;;;;;10.73;6.38;;;3.80;92.80;;;;;;5034951;28;20229;-71
2022/04/18 00:32:29;;;;;;;11.98;6.90;;;3.70;92.70;;;;;;5030795;28;20598;-71
2022/04/18 00:34:57;;;;;;;8.27;5.03;;;3.70;93.00;;;;;;5030860;28;20209;-71
2022/04/18 00:37:24;;;;;;;10.35;6.40;;;3.70;92.80;;;;;;5030550;28;20583;-71
2022/04/18 00:39:51;;;;;;;7.88;5.05;;;3.70;92.80;;;;;;5030089;28;20202;-71
2022/04/18 00:42:17;;;;;;;9.13;4.90;;;3.50;92.70;;;;;;5030418;28;20221;-71
2022/04/18 00:44:44;;;;;;;6.53;5.32;;;3.50;92.90;;;;;;5030876;28;20217;-72
2022/04/18 00:47:11;;;;;;;6.63;5.25;;;3.40;92.90;;;;;;5030497;28;20304;-72
2022/04/18 00:49:38;;;;;;;6.88;5.00;;;3.40;93.00;;;;;;5030390;28;20209;-71
2022/04/18 00:52:07;;;;;;;7.13;4.45;;;3.40;92.90;;;;;;5033424;28;20202;-72
2022/04/18 00:54:34;;;;;;;4.20;3.88;;;3.40;93.00;;;;;;5034349;28;20209;-72
2022/04/18 00:57:02;;;;;;;5.25;4.10;;;3.40;93.30;;;;;;5034469;28;20288;-72
2022/04/18 00:59:32;;;;;;;5.15;4.20;;;3.40;93.40;;;;;;5033686;28;20696;-72
2022/04/18 01:01:59;;;;;;;6.53;3.50;;;3.30;93.60;;;;;;5034378;28;20261;-72
2022/04/18 01:04:26;;;;;;;4.47;3.60;;;3.30;93.90;;;;;;5033877;28;20198;-72
2022/04/18 01:06:52;;;;;;;4.10;3.30;;;3.20;94.10;;;;;;5033973;28;20737;-71
2022/04/18 01:09:21;;;;;;;5.03;3.78;;;3.20;94.00;;;;;;5033956;28;20205;-71
2022/04/18 01:11:49;;;;;;;4.18;3.67;;;3.20;94.10;;;;;;5034232;28;20683;-71
2022/04/18 01:14:17;;;;;;;5.05;3.75;;;3.20;94.20;;;;;;5033760;28;20328;-71
2022/04/18 01:16:43;;;;;;;4.97;4.03;;;3.30;94.00;;;;;;5033864;28;20221;-71
2022/04/18 01:19:10;;;;;;;5.10;3.75;;;3.30;94.00;;;;;;5033257;28;20205;-71
2022/04/18 01:21:38;;;;;;;4.07;3.67;;;3.30;94.20;;;;;;5033813;28;20218;-72
2022/04/18 01:28:58;;;;;;;3.30;3.00;;;3.30;94.00;;;;;;5037979;28;20561;-72
2022/04/18 01:29:36;;;;;;;3.63;3.28;;;3.10;94.30;;;;;;5033674;28;20339;-71
2022/04/18 01:32:03;;;;;;;5.93;4.30;;;3.20;94.40;;;;;;5033889;28;20206;-71
2022/04/18 01:34:30;;;;;;;4.57;3.50;;;3.10;94.50;;;;;;5033494;28;20386;-71
2022/04/18 01:36:58;;;;;;;4.63;3.42;;;3.10;94.40;;;;;;5033412;28;20218;-71
2022/04/18 01:39:25;;;;;;;5.97;3.60;;;3.10;94.40;;;;;;5032701;28;20201;-71
2022/04/18 01:41:52;;;;;;;4.78;3.13;;;3.00;94.70;;;;;;5033458;28;20244;-71
2022/04/18 01:44:19;;;;;;;3.97;3.58;;;3.00;94.70;;;;;;5033173;28;20225;-71
2022/04/18 01:46:45;;;;;;;4.88;4.35;;;2.90;94.80;;;;;;5033248;28;20678;-71
2022/04/18 01:49:12;;;;;;;5.32;3.95;;;2.80;94.90;;;;;;5032646;28;20202;-71
2022/04/18 01:51:39;;;;;;;5.55;4.00;;;2.90;95.10;;;;;;5032944;28;20201;-71
2022/04/18 01:54:07;;;;;;;7.10;4.03;;;2.90;94.90;;;;;;5033167;28;20255;-71
2022/04/18 01:56:33;;;;;;;4.60;3.72;;;2.80;94.80;;;;;;5032832;28;20226;-71
2022/04/18 01:59:00;;;;;;;5.43;3.40;;;2.80;94.90;;;;;;5032472;28;20198;-71
2022/04/18 02:01:27;;;;;;;4.63;3.35;;;2.70;95.10;;;;;;5032782;28;20206;-71
2022/04/18 02:03:53;;;;;;;4.75;3.75;;;2.70;95.40;;;;;;5032308;28;20224;-70
2022/04/18 02:06:20;;;;;;;5.25;4.75;;;2.70;95.70;;;;;;5032599;28;20225;-70
2022/04/18 02:08:47;;;;;;;4.20;3.10;;;2.70;95.40;;;;;;5032555;28;20213;-71
2022/04/18 02:11:15;;;;;;;3.60;3.30;;;2.70;95.70;;;;;;5032827;28;20206;-71
2022/04/18 02:13:42;;;;;;;4.47;3.55;;;2.70;95.80;;;;;;5033091;28;20263;-71
2022/04/18 02:16:08;;;;;;;4.50;3.65;;;2.70;95.80;;;;;;5032773;28;20224;-71
2022/04/18 02:18:35;;;;;;;4.15;3.55;;;2.60;95.70;;;;;;5032116;28;20685;-71
2022/04/18 02:21:02;;;;;;;4.28;3.53;;;2.60;95.90;;;;;;5032760;28;20256;-71
2022/04/18 02:23:28;;;;;;;5.28;3.70;;;2.60;96.10;;;;;;5032471;28;20221;-71
2022/04/18 02:25:55;;;;;;;4.53;3.50;;;2.50;96.20;;;;;;5032577;28;20678;-71
2022/04/18 02:28:23;;;;;;;4.40;3.78;;;2.50;96.60;;;;;;5053031;22;20225;-69
2022/04/18 02:30:50;;;;;;;4.70;3.35;;;2.50;96.60;;;;;;5051810;28;20205;-69
2022/04/18 02:33:17;;;;;;;5.03;3.97;;;2.50;96.70;;;;;;5052959;28;20197;-70
2022/04/18 02:35:43;;;;;;;3.97;3.35;;;2.40;96.80;;;;;;5051806;28;20263;-69
2022/04/18 02:38:10;;;;;;;4.28;3.55;;;2.40;96.90;;;;;;5031682;28;20252;-69
2022/04/18 02:40:37;;;;;;;4.32;3.60;;;2.40;96.90;;;;;;5031990;28;20221;-70
2022/04/18 02:43:04;;;;;;;5.50;4.10;;;2.30;97.20;;;;;;5031954;28;20225;-69
2022/04/18 02:45:33;;;;;;;4.20;3.33;;;2.40;97.30;;;;;;5031759;28;20202;-69
2022/04/18 02:48:00;;;;;;;6.47;4.30;;;2.30;97.40;;;;;;5031057;28;20225;-69
2022/04/18 02:50:27;;;;;;;3.97;3.58;;;2.30;97.30;;;;;;5031962;28;20212;-70
2022/04/18 02:52:55;;;;;;;4.70;3.92;;;2.30;97.20;;;;;;5031523;28;20661;-69
2022/04/18 02:55:22;;;;;;;3.92;3.60;;;2.30;97.20;;;;;;5031636;28;20198;-69
2022/04/18 02:57:49;;;;;;;3.90;3.50;;;2.30;97.50;;;;;;5031708;28;20229;-70
2022/04/18 03:00:16;;;;;;;4.65;3.60;;;2.30;97.70;;;;;;5031086;28;20205;-69
2022/04/18 03:02:44;;;;;;;3.90;3.40;;;2.40;97.70;;;;;;5031404;28;20299;-70
2022/04/18 03:05:12;;;;;;;5.95;3.90;;;2.30;97.90;;;;;;5031249;28;20474;-68
2022/04/18 03:07:39;;;;;;;4.38;3.78;;;2.30;97.90;;;;;;5031197;28;20230;-68
2022/04/18 03:10:07;;;;;;;3.95;3.60;;;2.30;97.90;;;;;;5030873;28;20216;-68
2022/04/18 03:12:34;;;;;;;4.50;3.72;;;2.30;97.90;;;;;;5031253;28;20280;-68
2022/04/18 03:15:01;;;;;;;5.03;3.90;;;2.20;98.00;;;;;;5031131;28;20249;-68
2022/04/18 03:17:28;;;;;;;4.90;3.72;;;2.10;98.20;;;;;;5031327;28;20269;-69
2022/04/18 03:19:56;;;;;;;4.40;4.00;;;2.10;98.40;;;;;;5030454;28;20570;-68
2022/04/18 03:22:24;;;;;;;5.57;4.00;;;2.10;98.90;;;;;;5031166;28;20633;-68
2022/04/18 03:24:50;;;;;;;5.15;3.88;;;2.10;98.60;;;;;;5030924;28;20632;-68
2022/04/18 03:27:17;;;;;;;4.30;3.65;;;2.10;98.60;;;;;;5030995;28;20606;-68
2022/04/18 03:29:44;;;;;;;4.13;3.60;;;2.00;98.70;;;;;;5030107;28;20637;-69
2022/04/18 03:32:10;;;;;;;4.00;3.63;;;2.00;98.80;;;;;;5031416;28;20194;-69
2022/04/18 03:34:37;;;;;;;5.15;4.00;;;2.00;98.90;;;;;;5031258;28;20248;-69
2022/04/18 03:39:53;;;;;;;3.38;3.08;;;1.90;99.40;;;;;;5030134;28;20635;-68
2022/04/18 03:42:29;;;;;;;4.32;3.92;;;1.90;99.40;;;;;;5030715;28;20218;-68
2022/04/18 03:44:57;;;;;;;6.45;3.85;;;1.80;99.40;;;;;;5030952;28;20743;-68
2022/04/18 03:47:25;;;;;;;5.70;3.90;;;1.80;99.50;;;;;;5030526;28;20218;-68
2022/04/18 03:49:52;;;;;;;4.38;3.50;;;1.90;99.40;;;;;;5029915;28;20616;-68
2022/04/18 03:52:20;;;;;;;5.78;3.70;;;1.90;99.40;;;;;;5030642;28;20214;-68
2022/04/18 03:54:47;;;;;;;4.75;3.38;;;1.80;99.40;;;;;;5030421;28;20205;-69
2022/04/18 03:57:14;;;;;;;3.83;3.40;;;1.80;99.50;;;;;;5030497;28;20308;-68
2022/04/18 03:59:41;;;;;;;4.53;3.80;;;1.80;99.60;;;;;;5029763;28;20560;-68
2022/04/18 04:02:08;;;;;;;4.25;3.85;;;1.80;99.60;;;;;;5030560;28;20218;-68
2022/04/18 04:04:35;;;;;;;3.58;3.28;;;1.80;99.60;;;;;;5030500;28;20212;-68
2022/04/18 04:07:01;;;;;;;7.15;3.47;;;1.80;99.60;;;;;;5030217;28;20233;-68
2022/04/18 04:09:29;;;;;;;4.15;3.75;;;1.80;99.60;;;;;;5029665;28;20551;-68
2022/04/18 04:11:56;;;;;;;6.90;4.38;;;1.80;99.50;;;;;;5030380;28;20202;-68
2022/04/18 04:14:23;;;;;;;3.70;3.40;;;1.80;99.40;;;;;;5030226;28;20206;-68
2022/04/18 04:16:49;;;;;;;4.75;3.40;;;1.80;99.50;;;;;;5030114;28;20234;-68
2022/04/18 04:19:16;;;;;;;4.05;3.63;;;1.80;99.70;;;;;;5029582;28;20206;-68
2022/04/18 04:21:43;;;;;;;4.97;4.43;;;1.80;99.20;;;;;;5030174;28;20202;-68
2022/04/18 04:24:09;;;;;;;5.72;3.70;;;1.80;99.40;;;;;;5030066;28;20605;-70
2022/04/18 04:26:37;;;;;;;4.78;3.90;;;1.80;99.60;;;;;;5035863;28;20620;-69
2022/04/18 04:29:04;;;;;;;4.28;3.70;;;1.80;99.60;;;;;;5037678;28;20221;-69
2022/04/18 04:31:31;;;;;;;4.32;3.55;;;1.70;99.80;;;;;;5037813;28;20819;-68
2022/04/18 04:33:58;;;;;;;4.55;4.22;;;1.80;99.80;;;;;;5037160;28;20621;-69
2022/04/18 04:36:24;;;;;;;3.55;3.10;;;1.80;99.70;;;;;;5037010;28;20628;-69
2022/04/18 04:38:51;;;;;;;4.03;3.60;;;1.70;99.70;;;;;;5036444;28;20684;-69
2022/04/18 04:41:18;;;;;;;4.20;3.80;;;1.70;99.80;;;;;;5037017;28;20205;-68
2022/04/18 04:43:46;;;;;;;4.15;3.65;;;1.70;99.80;;;;;;5036826;28;20224;-69
2022/04/18 04:46:13;;;;;;;5.80;3.45;;;1.70;99.90;;;;;;5037049;28;20222;-69
2022/04/18 04:48:39;;;;;;;4.80;4.30;;;1.70;99.70;;;;;;5036302;28;20590;-68
2022/04/18 04:51:07;;;;;;;4.22;3.78;;;1.70;99.80;;;;;;5037352;28;20204;-69
2022/04/18 04:53:33;;;;;;;5.70;3.60;;;1.70;99.70;;;;;;5036877;28;20205;-69
2022/04/18 04:56:00;;;;;;;4.35;3.95;;;1.70;99.80;;;;;;5036851;28;20577;-69
2022/04/18 04:58:28;;;;;;;4.18;3.35;;;1.80;99.90;;;;;;5036272;28;20205;-69
2022/04/18 05:00:56;;;;;;;3.83;3.38;;;1.80;99.90;;;;;;5036836;28;20693;-69
2022/04/18 05:03:23;;;;;;;4.10;3.35;;;1.80;99.90;;;;;;5036738;28;20225;-69
2022/04/18 05:05:49;;;;;;;5.18;3.70;;;1.90;99.90;;;;;;5036572;28;20225;-69
2022/04/18 05:08:16;;;;;;;4.07;3.67;;;1.90;99.90;;;;;;5036235;28;20201;-69
2022/04/18 05:10:43;;;;;;;5.13;3.55;;;1.90;99.90;;;;;;5036744;28;20198;-69
2022/04/18 05:13:09;;;;;;;4.03;3.63;;;2.00;99.90;;;;;;5036794;28;20876;-69
2022/04/18 05:15:37;;;;;;;4.72;3.90;;;2.00;99.90;;;;;;5036635;28;20205;-68
2022/04/18 05:18:05;;;;;;;4.35;3.78;;;2.10;99.90;;;;;;5035941;28;20221;-69
2022/04/18 05:20:32;;;;;;;6.90;3.72;;;2.10;99.90;;;;;;5036630;28;20640;-69
2022/04/18 05:22:59;;;;;;;4.60;3.65;;;2.20;99.90;;;;;;5036491;28;20650;-69
2022/04/18 05:25:26;;;;;;;4.00;3.45;;;2.30;99.90;;;;;;5036658;28;20202;-69
2022/04/18 05:27:53;;;;;;;4.47;3.35;;;2.30;99.90;;;;;;5036500;28;20229;-69
2022/04/18 05:30:19;;;;;;;5.15;3.60;;;2.40;99.90;;;;;;5036044;28;20673;-69
2022/04/18 05:32:46;;;;;;;4.00;3.35;;;2.50;99.50;;;;;;5036442;28;20572;-69
2022/04/18 05:35:15;;;;;;;4.70;3.03;;;2.70;99.20;;;;;;5036585;28;20201;-69
2022/04/18 05:37:42;;;;;;;5.00;3.28;;;2.80;99.40;;;;;;5033482;28;20226;-69
2022/04/18 05:40:10;;;;;;;5.13;3.42;;;2.90;98.80;;;;;;5033123;28;20552;-70
2022/04/18 05:42:37;;;;;;;4.85;3.70;;;3.00;98.30;;;;;;5033350;28;20583;-69
2022/04/18 05:45:07;;;;;;;4.07;3.22;;;3.10;97.70;;;;;;5033501;28;20688;-69
2022/04/18 05:47:34;;;;;;;4.85;3.70;;;3.20;96.90;;;;;;5033455;28;20248;-69
2022/04/18 05:50:01;;;;;;;5.15;3.20;;;3.40;95.40;;;;;;5032814;28;20202;-69
2022/04/18 05:52:29;;;;;;;3.30;3.00;;;3.60;94.80;;;;;;5033356;28;20677;-69
2022/04/18 05:54:55;;;;;;;3.67;3.33;;;3.80;94.10;;;;;;5033213;28;20571;-69
2022/04/18 05:57:22;;;;;;;4.00;3.08;;;4.00;94.20;;;;;;5033077;28;20222;-69
2022/04/18 05:59:49;;;;;;;4.47;2.83;;;4.20;93.90;;;;;;5032443;28;20619;-69
2022/04/18 06:02:16;;;;;;;5.57;3.95;;;4.40;94.00;;;;;;5032895;28;20678;-69
2022/04/18 06:04:42;;;;;;;3.10;2.80;;;4.50;93.10;;;;;;5032742;28;20709;-69
2022/04/18 06:07:09;;;;;;;4.93;3.30;;;4.60;93.30;;;;;;5033077;28;20284;-68
2022/04/18 06:09:37;;;;;;;7.18;3.72;;;4.70;92.80;;;;;;5032184;28;20212;-69
2022/04/18 06:12:05;;;;;;;3.22;2.92;;;4.90;91.90;;;;;;5015427;28;20629;-69
2022/04/18 06:14:31;;;;;;;3.83;3.40;;;5.00;91.60;;;;;;5032760;28;20665;-70
2022/04/18 06:16:58;;;;;;;4.00;3.60;;;5.10;91.30;;;;;;5032665;28;20230;-69
2022/04/18 06:19:25;;;;;;;6.70;4.40;;;5.20;91.30;;;;;;5032189;28;20264;-69
2022/04/18 06:21:52;;;;;;;3.50;3.20;;;5.20;91.00;;;;;;5032539;28;20614;-69
2022/04/18 06:24:19;;;;;;;3.30;2.88;;;5.30;91.00;;;;;;5032507;28;20792;-69
2022/04/18 06:26:47;;;;;;;3.40;3.10;;;5.40;91.10;;;;;;5032403;28;20253;-69
2022/04/18 06:29:14;;;;;;;4.85;3.03;;;5.50;91.00;;;;;;5031844;28;20214;-69
2022/04/18 06:31:41;;;;;;;3.92;3.50;;;5.70;91.60;;;;;;5032563;28;20209;-69
2022/04/18 06:34:07;;;;;;;3.78;3.40;;;5.70;90.80;;;;;;5032515;28;20201;-69
2022/04/18 06:36:34;;;;;;;3.47;2.92;;;5.80;90.40;;;;;;5032221;28;20221;-69
2022/04/18 06:39:02;;;;;;;3.75;3.28;;;6.00;90.30;;;;;;5031612;28;20202;-69
2022/04/18 06:41:29;;;;;;;4.00;3.03;;;6.00;90.10;;;;;;5032272;28;20607;-69
2022/04/18 06:43:57;;;;;;;4.90;3.65;;;6.20;90.40;;;;;;5032020;28;20230;-69
2022/04/18 06:46:24;;;;;;;3.80;3.47;;;6.30;90.20;;;;;;5032014;28;20221;-69
2022/04/18 06:48:50;;;;;;;9.43;3.65;;;6.40;89.90;;;;;;5026429;28;20198;-70
2022/04/18 06:51:17;;;;;;;3.72;2.88;;;6.50;91.20;;;;;;5020336;28;20208;-69
2022/04/18 06:53:44;;;;;;;6.25;3.72;;;6.60;90.40;;;;;;5030941;28;20197;-69
2022/04/18 06:58:55;;;;;;;7.97;3.38;;;6.80;88.90;;;;;;5028088;28;20201;-70
2022/04/18 07:01:23;;;;;;;4.40;3.65;;;6.90;88.90;;;;;;5030185;28;20217;-70
2022/04/18 07:03:50;;;;;;;3.75;3.45;;;6.90;88.60;;;;;;5028755;28;20217;-70
2022/04/18 07:06:16;;;;;;;4.43;3.42;;;7.00;88.60;;;;;;5029719;28;20700;-69
2022/04/18 07:08:45;;;;;;;4.72;3.83;;;7.20;87.70;;;;;;5028899;28;20211;-69
2022/04/18 07:11:12;;;;;;;4.65;3.40;;;7.30;88.80;;;;;;5029923;28;20779;-70
2022/04/18 07:13:38;;;;;;;5.32;3.70;;;7.40;87.60;;;;;;5029549;28;20194;-69
2022/04/18 07:16:07;;;;;;;5.00;3.92;;;7.50;87.60;;;;;;5029610;28;20194;-70
2022/04/18 07:18:35;;;;;;;8.40;3.70;;;7.60;89.00;;;;;;5028708;28;20209;-70
2022/04/18 07:21:03;;;;;;;3.35;3.05;;;7.70;88.80;;;;;;5029423;28;20198;-69
2022/04/18 07:23:30;;;;;;;3.85;3.50;;;7.80;89.40;;;;;;5027436;28;20689;-69
2022/04/18 07:25:57;;;;;;;3.83;3.33;;;7.90;87.80;;;;;;5029709;28;20987;-70
2022/04/18 07:28:24;;;;;;;7.22;3.70;;;8.10;89.40;;;;;;5028759;28;20214;-69
2022/04/18 07:30:51;;;;;;;3.55;3.22;;;8.30;89.30;;;;;;5028909;28;20212;-70
2022/04/18 07:33:17;;;;;;;5.63;3.80;;;8.40;87.10;;;;;;5029090;28;20202;-70
2022/04/18 07:35:45;;;;;;;4.53;3.58;;;8.50;86.40;;;;;;5028921;28;20202;-69
2022/04/18 07:40:56;;;;;;;3.80;3.40;;;8.70;87.80;;;;;;5029311;28;20680;-69
2022/04/18 07:43:23;;;;;;;4.40;3.60;;;8.80;85.40;;;;;;5028678;28;20254;-70
2022/04/18 07:45:50;;;;;;;4.35;3.53;;;8.80;86.40;;;;;;5028827;28;20202;-70
2022/04/18 07:48:17;;;;;;;3.83;3.47;;;9.00;86.70;;;;;;5028818;28;20197;-70
2022/04/18 07:53:29;;;;;;;5.75;3.40;;;9.40;89.20;;;;;;5028866;28;20201;-70
2022/04/18 07:55:56;;;;;;;4.70;3.75;;;9.70;88.90;;;;;;5028654;28;20610;-70
2022/04/18 07:58:23;;;;;;;3.83;3.40;;;9.90;89.60;;;;;;5028227;28;20207;-70
2022/04/18 08:00:49;;;;;;;4.05;3.65;;;10.10;86.50;;;;;;5027989;28;20221;-70
2022/04/18 08:03:17;;;;;;;3.70;3.40;;;10.40;87.20;;;;;;5028852;28;20576;-70
2022/04/18 08:05:45;;;;;;;4.38;3.40;;;10.60;86.10;;;;;;5028429;28;20201;-70
2022/04/18 08:08:12;;;;;;;4.80;4.07;;;11.00;84.40;;;;;;5028123;28;20225;-70
2022/04/18 08:10:38;;;;;;;4.05;3.65;;;11.20;82.90;;;;;;5028527;28;20193;-70
2022/04/18 08:13:05;;;;;;;3.67;3.25;;;11.60;82.40;;;;;;5030271;28;20208;-70
2022/04/18 08:15:33;;;;;;;4.07;3.50;;;12.00;82.70;;;;;;5030701;28;20205;-70
2022/04/18 08:18:00;;;;;;;4.87;3.60;;;12.40;84.60;;;;;;5030195;28;20902;-70
2022/04/18 08:20:28;;;;;;;3.53;3.23;;;12.80;79.00;;;;;;5028060;28;20460;-70
2022/04/18 08:22:56;;;;;;;3.90;3.00;;;13.20;79.10;;;;;;5028121;28;20464;-70
2022/04/18 08:25:22;;;;;;;4.10;3.73;;;13.70;78.10;;;;;;5027310;28;20488;-70
2022/04/18 08:27:49;;;;;;;3.93;3.53;;;14.10;77.10;;;;;;5027880;28;20488;-70
2022/04/18 08:30:18;;;;;;;4.00;3.60;;;14.60;76.00;;;;;;5074206;22;20491;-93
2022/04/18 08:32:45;;;;;;;4.00;3.60;;;15.20;73.50;;;;;;5058023;28;20468;-93
2022/04/18 08:35:15;;;;;;;4.13;3.47;;;15.50;74.80;;;;;;5058923;28;20454;-93
2022/04/18 08:37:42;;;;;;;5.57;4.27;;;15.70;70.30;;;;;;5058742;28;20464;-93
2022/04/18 08:40:12;;;;;;;4.40;3.60;;;16.00;73.30;;;;;;5039765;28;21278;-94
2022/04/18 08:42:40;;;;;;;3.63;3.30;;;16.20;71.70;;;;;;5037204;28;20474;-94
2022/04/18 08:45:09;;;;;;;3.57;3.27;;;16.50;70.90;;;;;;5038270;28;20485;-93
2022/04/18 08:53:09;;;;;;;4.60;3.50;;;18.00;69.90;;;;;;5053290;28;20476;-92
2022/04/18 08:55:40;;;;;;;4.33;3.93;;;18.40;66.70;;;;;;5051614;28;20481;-94
2022/04/18 08:58:07;;;;;;;4.67;3.80;;;18.50;67.10;;;;;;5051296;28;20449;-94
2022/04/18 09:00:34;;;;;;;4.10;3.23;;;18.70;66.30;;;;;;5054277;28;20544;-92
2022/04/18 09:03:01;;;;;;;4.07;3.77;;;19.00;63.50;;;;;;5045356;28;20432;-92
2022/04/18 09:05:28;;;;;;;3.77;3.43;;;18.80;64.40;;;;;;5046369;28;20465;-91
2022/04/18 09:07:59;;;;;;;3.33;3.03;;;18.80;64.60;;;;;;5051584;28;20441;-93
2022/04/18 09:10:27;;;;;;;4.17;3.77;;;19.10;62.70;;;;;;5050701;28;20456;-92
2022/04/18 09:13:04;;;;;;;4.00;3.60;;;18.80;60.10;;;;;;5048489;28;20972;-92
2022/04/18 09:16:05;;;;;;;;;;;;;;;;;;;;;
2022/04/18 09:18:31;;;;;;;4.30;3.60;;;18.10;63.90;;;;;;5045366;28;20472;-92
2022/04/18 09:20:59;;;;;;;6.20;2.97;;;18.50;63.60;;;;;;5045131;28;20461;-93
2022/04/18 09:23:27;;;;;;;3.40;2.83;;;19.00;64.00;;;;;;5041714;28;20460;-91
2022/04/18 09:26:01;;;;;;;4.07;3.67;;;19.40;61.70;;;;;;5036540;28;20457;-94
2022/04/18 09:28:32;;;;;;;3.83;3.53;;;19.90;62.50;;;;;;5036789;28;20498;-94
2022/04/18 09:31:04;;;;;;;4.93;3.50;;;20.00;61.10;;;;;;5039911;28;20464;-93
2022/04/18 09:33:34;;;;;;;6.60;3.80;;;20.30;61.10;;;;;;5039315;28;20460;-91
2022/04/18 09:36:29;;;;;;;4.17;3.30;;;20.60;59.80;;;;;;5042752;28;20456;-93
2022/04/18 09:38:57;;;;;;;3.73;3.00;;;20.60;58.60;;;;;;5042798;28;20480;-93
2022/04/18 09:41:26;;;;;;;8.10;3.50;;;20.80;60.10;;;;;;5044231;28;20491;-93
2022/04/18 09:43:56;;;;;;;3.53;3.23;;;20.90;58.90;;;;;;5047431;28;20460;-94
2022/04/18 09:46:24;;;;;;;3.83;3.03;;;21.20;58.70;;;;;;5043259;28;20464;-93
2022/04/18 09:48:53;;;;;;;3.40;3.10;;;21.30;57.70;;;;;;5044325;28;20555;-93
2022/04/18 09:51:25;;;;;;;4.63;3.20;;;21.20;57.60;;;;;;5039895;28;20540;-92
2022/04/18 09:53:54;;;;;;;4.60;3.80;;;21.20;56.20;;;;;;5044423;28;20548;-93
2022/04/18 09:56:22;;;;;;;4.60;3.70;;;21.30;56.20;;;;;;5040210;28;20525;-92
2022/04/18 09:58:49;;;;;;;5.23;3.47;;;20.50;55.00;;;;;;5051093;28;20508;-92
2022/04/18 10:01:18;;;;;;;3.80;3.40;;;20.40;57.10;;;;;;5036374;28;20464;-92
2022/04/18 10:03:46;;;;;;;3.83;3.43;;;21.00;55.60;;;;;;5035836;28;20452;-92
2022/04/18 10:06:13;;;;;;;3.67;3.17;;;20.50;55.40;;;;;;5037908;28;20900;-93
2022/04/18 10:08:41;;;;;;;3.53;3.23;;;20.50;56.20;;;;;;5035219;28;20484;-93
2022/04/18 10:11:11;;;;;;;3.70;3.40;;;20.60;57.10;;;;;;5035575;28;20472;-93
2022/04/18 10:13:38;;;;;;;5.13;4.00;;;21.10;56.70;;;;;;5036909;28;20835;-93
2022/04/18 10:16:06;;;;;;;3.63;3.30;;;21.80;55.50;;;;;;5035854;28;20895;-92
2022/04/18 10:18:41;;;;;;;5.43;4.93;;;21.70;53.20;;;;;;5035364;28;20869;-92
2022/04/18 10:21:25;;;;;;;3.47;3.17;;;21.10;57.40;;;;;;5036674;28;20467;-93
2022/04/18 10:24:23;;;;;;;3.53;3.23;;;20.90;55.10;;;;;;5036033;28;20472;-92
2022/04/18 10:27:30;;;;;;;4.13;3.30;;;21.50;56.70;;;;;;5037310;28;20463;-92
2022/04/18 10:32:51;;;;;;;3.50;3.20;;;22.80;57.50;;;;;;5041212;28;20456;-93
2022/04/18 10:35:23;;;;;;;3.47;3.17;;;23.80;57.00;;;;;;5038567;28;20484;-91
2022/04/18 10:37:55;;;;;;;3.73;3.33;;;24.20;54.50;;;;;;5038549;28;20464;-92
2022/04/18 10:40:23;;;;;;;3.60;3.30;;;24.00;54.00;;;;;;5038820;28;20488;-91
2022/04/18 10:42:50;;;;;;;4.47;3.50;;;24.30;55.00;;;;;;5041116;28;20480;-93
2022/04/18 10:45:20;;;;;;;4.20;3.80;;;24.60;55.20;;;;;;5041514;28;20460;-92
2022/04/18 10:48:10;;;;;;;3.40;3.10;;;25.10;53.10;;;;;;5039523;28;20559;-92
2022/04/18 10:50:44;;;;;;;3.80;3.50;;;24.20;52.20;;;;;;5039793;28;20456;-92
2022/04/18 10:53:18;;;;;;;3.90;3.50;;;24.10;54.20;;;;;;5039507;28;20468;-92
2022/04/18 10:56:22;;;;;;;4.13;3.13;;;23.40;53.90;;;;;;5038802;28;20475;-91
2022/04/18 10:58:50;;;;;;;3.40;3.00;;;23.50;53.20;;;;;;5037252;28;20486;-92
2022/04/18 11:01:19;;;;;;;3.77;3.43;;;23.80;52.30;;;;;;5037828;28;20470;-92
2022/04/18 11:03:55;;;;;;;3.60;3.27;;;23.70;55.00;;;;;;5039709;28;20471;-92
2022/04/18 11:06:46;;;;;;;3.53;3.23;;;24.20;52.90;;;;;;5038092;28;20452;-92
2022/04/18 11:09:16;;;;;;;3.40;3.10;;;23.90;52.40;;;;;;5037755;28;20488;-92
2022/04/18 11:12:38;;;;;;;3.43;3.13;;;24.10;53.50;;;;;;5037898;28;20472;-92
2022/04/18 11:15:24;;;;;;;4.53;3.20;;;23.40;52.80;;;;;;5020567;28;20591;-93
2022/04/18 11:17:51;;;;;;;3.73;3.43;;;24.10;55.60;;;;;;5048961;28;20471;-92
2022/04/18 11:20:33;;;;;;;3.33;3.13;;;24.90;53.80;;;;;;5057478;28;20466;-93
2022/04/18 11:23:21;;;;;;;4.03;3.40;;;25.40;52.80;;;;;;5058394;28;20445;-92
2022/04/18 11:25:52;;;;;;;3.00;2.80;;;24.50;52.40;;;;;;5057836;28;20460;-93
2022/04/18 11:28:19;;;;;;;3.57;3.27;;;24.20;52.30;;;;;;5057824;28;20700;-91
2022/04/18 11:30:46;;;;;;;4.07;3.67;;;23.60;50.40;;;;;;5058004;28;20475;-92
2022/04/18 11:33:13;;;;;;;5.20;3.77;;;23.90;53.80;;;;;;5058049;28;20461;-93
2022/04/18 11:35:41;;;;;;;3.73;3.13;;;24.90;52.20;;;;;;5054754;28;20523;-92
2022/04/18 11:38:08;;;;;;;2.93;2.73;;;25.80;52.40;;;;;;5047805;28;20465;-92
2022/04/18 11:40:39;;;;;;;4.00;3.60;;;26.20;53.80;;;;;;5043897;28;20462;-93
2022/04/18 11:43:11;;;;;;;3.67;3.37;;;26.20;51.60;;;;;;5041691;28;20482;-91
2022/04/18 11:45:38;;;;;;;3.27;2.80;;;25.80;52.90;;;;;;5040013;28;20457;-92
2022/04/18 11:48:06;;;;;;;4.53;3.33;;;26.30;52.90;;;;;;5038956;28;20463;-92
2022/04/18 11:50:36;;;;;;;3.80;3.50;;;26.40;52.50;;;;;;5038789;28;20625;-92
2022/04/18 11:53:06;;;;;;;3.50;3.20;;;26.50;51.60;;;;;;5038811;28;20470;-92
2022/04/18 11:55:40;;;;;;;3.87;3.30;;;26.40;51.60;;;;;;5035716;28;20496;-92
2022/04/18 11:58:09;;;;;;;3.93;3.53;;;26.30;50.00;;;;;;5036056;28;20463;-93
2022/04/18 12:08:47;;;;;;;3.17;2.97;;;25.50;51.40;;;;;;5031970;28;20894;-92
2022/04/18 12:11:14;;;;;;;3.33;3.00;;;26.10;52.30;;;;;;5037925;28;20461;-92
2022/04/18 12:13:43;;;;;;;3.80;3.50;;;26.60;52.50;;;;;;5038149;28;20473;-92
2022/04/18 12:16:11;;;;;;;4.00;3.60;;;26.30;50.90;;;;;;5037568;28;20545;-91
2022/04/18 12:18:39;;;;;;;4.50;3.83;;;26.10;53.60;;;;;;5042004;28;20551;-92
2022/04/18 12:21:06;;;;;;;3.60;3.30;;;26.30;53.30;;;;;;5046765;28;20967;-93
2022/04/18 12:23:32;;;;;;;4.83;3.73;;;26.50;52.30;;;;;;5057267;28;20463;-93
2022/04/18 12:26:01;;;;;;;3.93;3.53;;;26.70;50.20;;;;;;5052696;28;20520;-92
2022/04/18 12:28:29;;;;;;;4.23;3.80;;;26.10;53.10;;;;;;5045976;28;20495;-91
2022/04/18 12:30:58;;;;;;;4.30;3.43;;;25.40;50.80;;;;;;5047476;28;20455;-91
2022/04/18 12:33:27;;;;;;;3.83;3.53;;;24.30;53.20;;;;;;5049073;28;20451;-92
2022/04/18 12:35:54;;;;;;;3.47;3.10;;;24.30;51.90;;;;;;5050814;28;20478;-93
2022/04/18 12:38:31;;;;;;;3.70;3.07;;;24.30;54.70;;;;;;5045661;28;20555;-91
2022/04/18 12:40:59;;;;;;;6.17;3.57;;;24.60;54.10;;;;;;5043760;28;20460;-92
2022/04/18 12:43:28;;;;;;;3.40;3.10;;;25.00;52.70;;;;;;5046814;28;20464;-91
2022/04/18 12:46:00;;;;;;;4.30;3.70;;;24.10;50.70;;;;;;5047406;28;20463;-92
2022/04/18 12:48:28;;;;;;;3.53;3.23;;;24.10;53.40;;;;;;5048589;28;21020;-94
2022/04/18 12:50:57;;;;;;;4.53;3.40;;;24.10;52.20;;;;;;5046632;28;20479;-93
2022/04/18 12:53:48;;;;;;;3.73;3.40;;;24.20;53.40;;;;;;5045957;28;20460;-92
2022/04/18 12:56:20;;;;;;;3.80;3.50;;;24.70;54.00;;;;;;5050832;28;20500;-91
2022/04/18 12:58:47;;;;;;;4.00;3.40;;;25.30;53.10;;;;;;5045883;28;20571;-93
2022/04/18 13:01:24;;;;;;;4.63;3.50;;;25.60;51.80;;;;;;5045478;28;20456;-93
2022/04/18 13:03:53;;;;;;;3.70;3.40;;;25.60;52.80;;;;;;5046239;28;20981;-92
2022/04/18 13:06:23;;;;;;;3.50;3.20;;;25.50;52.90;;;;;;5049394;28;20563;-92
2022/04/18 13:08:50;;;;;;;6.03;3.00;;;25.40;51.90;;;;;;5053151;28;20546;-93
2022/04/18 13:11:19;;;;;;;3.07;2.80;;;25.30;53.80;;;;;;5054615;28;20484;-93
2022/04/18 13:13:46;;;;;;;3.90;3.50;;;25.70;55.50;;;;;;5052495;28;20464;-93
2022/04/18 13:16:25;;;;;;;3.97;3.10;;;26.10;53.00;;;;;;5051752;28;20504;-93
2022/04/18 13:18:59;;;;;;;3.60;3.30;;;26.10;51.80;;;;;;5064860;22;20921;-71
2022/04/18 13:21:28;;;;;;;6.07;3.73;;;25.80;51.70;;;;;;5073671;28;20456;-72
2022/04/18 13:23:55;;;;;;;4.33;3.67;;;24.90;51.70;;;;;;5073937;28;20547;-71
2022/04/18 13:26:21;;;;;;;3.73;3.43;;;24.00;54.00;;;;;;5068863;28;20479;-71
2022/04/18 13:28:48;;;;;;;3.80;3.40;;;24.20;56.30;;;;;;5053223;28;20470;-71
2022/04/18 13:31:15;;;;;;;3.60;3.30;;;24.40;53.50;;;;;;5049456;28;20457;-72